Погода Сеятель Северныйна 2 недели

Ростовская область, Россия

21 мая-03 июня
  • 21мая
    Сегодня
    +11°
    +26°
    Небольшая облачность
    ВремяПогодаТемператураВлажностьДавлениеВетер, м/сВероятность осадков
    00:00Ясно и безоблачно+14°C72 %758 мм1.6 м/с2 %
    03:00Ясно и безоблачно+13°C84 %759 мм1.3 м/с2 %
    06:00Ясно и безоблачно+14°C76 %759 мм1.4 м/с2 %
    09:00Ясно и безоблачно+21°C48 %760 мм2.4 м/с2 %
    12:00Ясно и безоблачно+24°C30 %760 мм2.8 м/с2 %
    15:00Небольшая облачность+25°C27 %759 мм3.1 м/с2 %
    18:00Ясно и безоблачно+24°C36 %758 мм2.7 м/с2 %
    21:00Ясно и безоблачно+17°C49 %759 мм1.5 м/с2 %
  • 22мая
    Среда
    +11°
    +26°
    Ясно и безоблачно
    ВремяПогодаТемператураВлажностьДавлениеВетер, м/сВероятность осадков
    00:00Практически безоблачно+14°C61 %758 мм1.8 м/с2 %
    03:00Ясно и безоблачно+12°C71 %758 мм1.6 м/с2 %
    06:00Ясно и безоблачно+13°C66 %758 мм1.8 м/с2 %
    09:00Ясно и безоблачно+21°C48 %759 мм3.1 м/с2 %
    12:00Ясно и безоблачно+24°C29 %758 мм4.1 м/с2 %
    15:00Ясно и безоблачно+25°C25 %757 мм4.8 м/с2 %
    18:00Ясно и безоблачно+25°C34 %756 мм3.1 м/с2 %
    21:00Ясно и безоблачно+17°C47 %756 мм1.9 м/с2 %
  • 23мая
    Четверг
    +14°
    +27°
    Ясно и безоблачно
    ВремяПогодаТемператураВлажностьДавлениеВетер, м/сВероятность осадков
    00:00Ясно и безоблачно+14°C57 %756 мм2.0 м/с2 %
    03:00Ясно и безоблачно+13°C59 %756 мм1.7 м/с2 %
    06:00Ясно и безоблачно+13°C64 %757 мм2.0 м/с2 %
    09:00Ясно и безоблачно+20°C51 %757 мм4.0 м/с2 %
    12:00Ясно и безоблачно+24°C27 %757 мм5.0 м/с2 %
    15:00Ясно и безоблачно+26°C27 %756 мм5.1 м/с2 %
    18:00Ясно и безоблачно+26°C33 %755 мм3.5 м/с2 %
    21:00Ясно и безоблачно+20°C37 %756 мм4.3 м/с2 %
  • 24мая
    Пятница
    +12°
    +24°
    Ясно и безоблачно
    ВремяПогодаТемператураВлажностьДавлениеВетер, м/сВероятность осадков
    00:00Ясно и безоблачно+18°C51 %757 мм3.9 м/с2 %
    03:00Ясно и безоблачно+15°C66 %757 мм3.3 м/с2 %
    06:00Ясно и безоблачно+16°C72 %758 мм3.7 м/с2 %
    09:00Ясно и безоблачно+20°C47 %760 мм6.2 м/с2 %
    12:00Ясно и безоблачно+24°C38 %760 мм6.7 м/с2 %
    15:00Ясно и безоблачно+24°C31 %760 мм7.0 м/с5 %
    18:00Ясно и безоблачно+23°C27 %760 мм5.6 м/с3 %
    21:00Ясно и безоблачно+19°C23 %761 мм5.8 м/с2 %
  • 25мая
    Суббота
    +14°
    +21°
    Облачно с прояснениями
    ВремяПогодаТемператураВлажностьДавлениеВетер, м/сВероятность осадков
    00:00Ясно и безоблачно+15°C26 %762 мм5.1 м/с2 %
    03:00Ясно и безоблачно+13°C29 %762 мм5.3 м/с2 %
    06:00Ясно и безоблачно+13°C36 %763 мм5.2 м/с2 %
    09:00Облачно с прояснениями+16°C36 %763 мм6.6 м/с2 %
    12:00Облачно с прояснениями+20°C30 %762 мм6.5 м/с2 %
    15:00Облачно с прояснениями+20°C24 %761 мм7.0 м/с2 %
    18:00Пасмурно, сплошная облачность+21°C24 %760 мм6.8 м/с6 %
    21:00Практически безоблачно+19°C36 %760 мм5.7 м/с12 %
Мы используем cookies
Соглашаюсь